createdAt,value
2018-08-27T00:00:07.181Z,0.00
2018-08-27T00:01:07.157Z,0.00
2018-08-27T00:02:07.133Z,0.00
2018-08-27T00:03:07.111Z,0.00
2018-08-27T00:04:07.088Z,0.00
2018-08-27T00:05:07.064Z,0.00
2018-08-27T00:06:07.041Z,0.00
2018-08-27T00:07:07.019Z,0.00
2018-08-27T00:08:06.993Z,0.00
2018-08-27T00:09:06.969Z,0.00
2018-08-27T00:10:06.948Z,0.00
2018-08-27T00:11:06.925Z,0.00
2018-08-27T00:12:06.899Z,0.00
2018-08-27T00:13:06.876Z,0.00
2018-08-27T00:14:06.853Z,0.00
2018-08-27T00:15:06.832Z,0.00
2018-08-27T00:16:06.805Z,0.00
2018-08-27T00:17:06.784Z,0.00
2018-08-27T00:18:06.761Z,0.00
2018-08-27T00:19:06.737Z,0.00
2018-08-27T00:20:06.714Z,0.00
2018-08-27T00:21:06.691Z,0.00
2018-08-27T00:22:06.668Z,0.00
2018-08-27T00:23:06.645Z,0.00
2018-08-27T00:24:06.626Z,0.00
2018-08-27T00:25:06.597Z,0.00
2018-08-27T00:26:06.574Z,0.00
2018-08-27T00:27:06.553Z,0.00
2018-08-27T00:28:06.531Z,0.00
2018-08-27T00:29:06.506Z,0.00
2018-08-27T00:30:06.484Z,0.00
2018-08-27T00:31:06.459Z,0.00
2018-08-27T00:32:06.434Z,0.00
2018-08-27T00:33:06.411Z,0.00
2018-08-27T00:34:06.396Z,0.00
2018-08-27T00:35:06.367Z,0.00
2018-08-27T00:36:06.343Z,0.00
2018-08-27T00:37:06.321Z,0.00
2018-08-27T00:38:06.298Z,0.00
2018-08-27T00:39:06.276Z,0.00
2018-08-27T00:40:06.251Z,0.00
2018-08-27T00:41:06.228Z,0.00
2018-08-27T00:42:06.205Z,0.00
2018-08-27T00:43:06.182Z,0.00
2018-08-27T00:44:06.160Z,0.00
2018-08-27T00:45:06.137Z,0.00
2018-08-27T00:46:06.116Z,0.00
2018-08-27T00:47:06.094Z,0.00
2018-08-27T00:48:06.068Z,0.00
2018-08-27T00:49:06.045Z,0.00
2018-08-27T00:50:06.024Z,0.00
2018-08-27T00:51:06.004Z,0.00
2018-08-27T00:52:05.980Z,0.00
2018-08-27T00:53:05.952Z,0.00
2018-08-27T00:54:05.932Z,0.00
2018-08-27T00:55:05.909Z,0.00
2018-08-27T00:56:05.886Z,0.00
2018-08-27T00:57:05.862Z,0.00
2018-08-27T00:58:05.841Z,0.00
2018-08-27T00:59:05.819Z,0.00
2018-08-27T01:00:05.795Z,0.00
2018-08-27T01:01:05.772Z,0.00
2018-08-27T01:02:05.749Z,0.00
2018-08-27T01:03:05.728Z,0.00
2018-08-27T01:04:05.704Z,0.00
2018-08-27T01:05:05.683Z,0.00
2018-08-27T01:06:05.658Z,0.00
2018-08-27T01:07:05.638Z,0.00
2018-08-27T01:08:05.613Z,0.00
2018-08-27T01:09:05.591Z,0.00
2018-08-27T01:10:05.571Z,0.00
2018-08-27T01:11:05.545Z,0.00
2018-08-27T01:12:05.524Z,0.00
2018-08-27T01:13:05.499Z,0.00
2018-08-27T01:14:05.476Z,0.00
2018-08-27T01:15:05.456Z,0.00
2018-08-27T01:16:05.437Z,0.00
2018-08-27T01:17:05.407Z,0.00
2018-08-27T01:18:05.385Z,0.00
2018-08-27T01:19:05.363Z,0.00
2018-08-27T01:20:05.341Z,0.00
2018-08-27T01:21:05.319Z,0.00
2018-08-27T01:22:05.295Z,0.00
2018-08-27T01:23:05.272Z,0.00
2018-08-27T01:24:05.249Z,0.00
2018-08-27T01:25:05.227Z,0.00
2018-08-27T01:26:05.205Z,0.00
2018-08-27T01:27:05.183Z,0.00
2018-08-27T01:28:05.157Z,0.00
2018-08-27T01:29:05.138Z,0.00
2018-08-27T01:30:05.118Z,0.00
2018-08-27T01:31:05.091Z,0.00
2018-08-27T01:32:05.070Z,0.00
2018-08-27T01:33:05.043Z,0.00
2018-08-27T01:34:05.025Z,0.00
2018-08-27T01:35:05.000Z,0.00
2018-08-27T01:36:04.986Z,0.00
2018-08-27T01:37:04.954Z,0.00
2018-08-27T01:38:04.935Z,0.00
2018-08-27T01:39:04.911Z,0.00
2018-08-27T01:40:04.888Z,0.00
2018-08-27T01:41:04.864Z,0.00
2018-08-27T01:42:04.843Z,0.00
2018-08-27T01:43:04.821Z,0.00
2018-08-27T01:44:04.796Z,0.00
2018-08-27T01:45:04.774Z,0.00
2018-08-27T01:46:04.752Z,0.00
2018-08-27T01:47:04.734Z,0.00
2018-08-27T01:48:04.713Z,0.00
2018-08-27T01:49:04.687Z,0.00
2018-08-27T01:50:04.662Z,0.00
2018-08-27T01:51:04.640Z,0.00
2018-08-27T01:52:04.617Z,0.00
2018-08-27T01:53:04.596Z,0.00
2018-08-27T01:54:04.571Z,0.00
2018-08-27T01:55:04.551Z,0.00
2018-08-27T01:56:04.527Z,0.00
2018-08-27T01:57:04.505Z,0.00
2018-08-27T01:58:04.484Z,0.00
2018-08-27T01:59:04.461Z,0.00
2018-08-27T02:00:04.440Z,0.00
2018-08-27T02:01:04.419Z,0.00
2018-08-27T02:02:04.395Z,0.00
2018-08-27T02:03:04.371Z,0.00
2018-08-27T02:04:04.347Z,0.00
2018-08-27T02:05:04.325Z,0.00
2018-08-27T02:06:04.304Z,0.00
2018-08-27T02:07:04.283Z,0.00
2018-08-27T02:08:04.260Z,0.00
2018-08-27T02:09:04.236Z,0.00
2018-08-27T02:10:04.213Z,0.00
2018-08-27T02:11:04.191Z,0.00
2018-08-27T02:12:04.168Z,0.00
2018-08-27T02:13:04.151Z,0.00
2018-08-27T02:14:04.125Z,0.00
2018-08-27T02:15:04.101Z,0.00
2018-08-27T02:16:04.079Z,0.00
2018-08-27T02:17:04.057Z,0.00
2018-08-27T02:18:04.038Z,0.00
2018-08-27T02:19:04.014Z,0.00
2018-08-27T02:20:03.989Z,0.00
2018-08-27T02:21:04.005Z,0.00
2018-08-27T02:22:03.945Z,0.00
2018-08-27T02:23:03.923Z,0.00
2018-08-27T02:24:03.899Z,0.00
2018-08-27T02:25:03.877Z,0.00
2018-08-27T02:26:03.893Z,0.00
2018-08-27T02:27:03.834Z,0.00
2018-08-27T02:28:03.811Z,0.00
2018-08-27T02:29:03.789Z,0.00
2018-08-27T02:30:03.767Z,0.00
2018-08-27T02:31:03.743Z,0.00
2018-08-27T02:32:03.720Z,0.00
2018-08-27T02:33:03.699Z,0.00
2018-08-27T02:34:03.676Z,0.00
2018-08-27T02:35:03.744Z,0.00
2018-08-27T02:36:03.633Z,0.00
2018-08-27T02:37:03.611Z,0.00
2018-08-27T02:38:03.590Z,0.00
2018-08-27T02:39:03.568Z,0.00
2018-08-27T02:40:03.545Z,0.00
2018-08-27T02:41:03.519Z,0.00
2018-08-27T02:42:03.495Z,0.00
2018-08-27T02:43:03.475Z,0.00
2018-08-27T02:44:03.455Z,0.00
2018-08-27T02:45:03.430Z,0.00
2018-08-27T02:46:03.407Z,0.00
2018-08-27T02:47:03.386Z,0.00
2018-08-27T02:48:03.362Z,0.00
2018-08-27T02:49:03.340Z,0.00
2018-08-27T02:50:03.323Z,0.00
2018-08-27T02:51:03.305Z,0.00
2018-08-27T02:52:03.273Z,0.00
2018-08-27T02:53:03.250Z,0.00
2018-08-27T02:54:03.228Z,0.00
2018-08-27T02:55:03.206Z,0.00
2018-08-27T02:56:03.182Z,0.00
2018-08-27T02:57:03.162Z,0.00
2018-08-27T02:58:03.140Z,0.00
2018-08-27T02:59:03.119Z,0.00
2018-08-27T03:00:03.092Z,0.00
2018-08-27T03:01:03.071Z,0.00
2018-08-27T03:02:03.049Z,0.00
2018-08-27T03:03:03.023Z,0.00
2018-08-27T03:04:03.004Z,0.00
2018-08-27T03:05:02.981Z,0.00
2018-08-27T03:06:02.955Z,0.00
2018-08-27T03:07:02.936Z,0.00
2018-08-27T03:08:02.911Z,0.00
2018-08-27T03:09:02.888Z,0.00
2018-08-27T03:10:02.866Z,0.00
2018-08-27T03:11:02.845Z,0.00
2018-08-27T03:12:02.819Z,0.00
2018-08-27T03:13:02.795Z,0.00
2018-08-27T03:14:02.775Z,0.00
2018-08-27T03:15:02.752Z,0.00
2018-08-27T03:16:02.729Z,0.00
2018-08-27T03:17:02.706Z,0.00
2018-08-27T03:18:02.729Z,0.00
2018-08-27T03:19:02.659Z,0.00
2018-08-27T03:20:02.635Z,0.00
2018-08-27T03:21:02.614Z,0.00
2018-08-27T03:22:02.590Z,0.00
2018-08-27T03:23:02.569Z,0.00
2018-08-27T03:24:02.542Z,0.00
2018-08-27T03:25:02.544Z,0.00
2018-08-27T03:26:02.497Z,0.00
2018-08-27T03:27:02.475Z,0.00
2018-08-27T03:28:02.451Z,0.00
2018-08-27T03:29:02.427Z,0.00
2018-08-27T03:30:02.406Z,0.00
2018-08-27T03:31:02.379Z,0.00
2018-08-27T03:32:02.359Z,0.00
2018-08-27T03:33:02.338Z,0.00
2018-08-27T03:34:02.312Z,0.00
2018-08-27T03:35:02.289Z,0.00
2018-08-27T03:36:02.265Z,0.00
2018-08-27T03:37:02.242Z,0.00
2018-08-27T03:38:02.215Z,0.00
2018-08-27T03:39:02.195Z,0.00
2018-08-27T03:40:02.172Z,0.00
2018-08-27T03:41:02.145Z,0.00
2018-08-27T03:42:02.125Z,0.00
2018-08-27T03:43:02.107Z,0.00
2018-08-27T03:44:02.081Z,0.00
2018-08-27T03:45:02.056Z,0.00
2018-08-27T03:46:02.037Z,0.00
2018-08-27T03:47:02.010Z,0.00
2018-08-27T03:48:01.985Z,0.00
2018-08-27T03:49:01.965Z,0.00
2018-08-27T03:50:01.940Z,0.00
2018-08-27T03:51:01.920Z,0.00
2018-08-27T03:52:01.893Z,0.00
2018-08-27T03:53:01.871Z,0.00
2018-08-27T03:54:01.847Z,0.00
2018-08-27T03:55:01.823Z,0.00
2018-08-27T03:56:01.803Z,0.00
2018-08-27T03:57:01.779Z,0.00
2018-08-27T03:58:01.759Z,0.00
2018-08-27T03:59:01.738Z,0.00
2018-08-27T04:00:01.714Z,0.00
2018-08-27T04:01:01.686Z,0.00
2018-08-27T04:02:01.661Z,0.00
2018-08-27T04:03:01.635Z,0.00
2018-08-27T04:04:01.614Z,0.00
2018-08-27T04:05:01.590Z,4.00
2018-08-27T04:06:01.570Z,4.00
2018-08-27T04:07:01.558Z,4.00
2018-08-27T04:08:01.522Z,0.00
2018-08-27T04:09:01.500Z,4.00
2018-08-27T04:10:01.474Z,4.00
2018-08-27T04:11:01.452Z,4.00
2018-08-27T04:12:01.428Z,4.00
2018-08-27T04:13:01.403Z,8.00
2018-08-27T04:14:01.379Z,4.00
2018-08-27T04:15:01.357Z,8.00
2018-08-27T04:16:01.334Z,12.00
2018-08-27T04:17:01.310Z,12.00
2018-08-27T04:18:01.288Z,12.00
2018-08-27T04:19:01.266Z,12.00
2018-08-27T04:20:01.241Z,16.00
2018-08-27T04:21:01.220Z,16.00
2018-08-27T04:22:01.196Z,24.00
2018-08-27T04:23:01.171Z,28.00
2018-08-27T04:24:01.151Z,32.00
2018-08-27T04:25:01.124Z,44.00
2018-08-27T04:26:01.104Z,52.00
2018-08-27T04:27:01.078Z,60.00
2018-08-27T04:28:01.054Z,68.00
2018-08-27T04:29:01.030Z,84.00
2018-08-27T04:30:01.028Z,96.00
2018-08-27T04:31:00.985Z,108.00
2018-08-27T04:32:00.960Z,120.00
2018-08-27T04:33:00.934Z,136.00
2018-08-27T04:34:00.915Z,148.00
2018-08-27T04:35:00.929Z,164.00
2018-08-27T04:36:00.866Z,172.00
2018-08-27T04:37:00.843Z,184.00
2018-08-27T04:38:00.820Z,188.00
2018-08-27T04:39:00.795Z,192.00
2018-08-27T04:40:00.777Z,196.00
2018-08-27T04:41:00.749Z,196.00
2018-08-27T04:42:00.726Z,196.00
2018-08-27T04:43:00.701Z,204.00
2018-08-27T04:44:00.728Z,212.00
2018-08-27T04:45:00.656Z,236.00
2018-08-27T04:46:00.631Z,244.00
2018-08-27T04:47:00.666Z,268.00
2018-08-27T04:48:00.582Z,276.00
2018-08-27T04:49:00.561Z,264.00
2018-08-27T04:50:00.534Z,260.00
2018-08-27T04:51:00.511Z,264.00
2018-08-27T04:52:00.485Z,268.00
2018-08-27T04:53:00.463Z,280.00
2018-08-27T04:54:00.439Z,296.00
2018-08-27T04:55:00.413Z,320.00
2018-08-27T04:56:00.389Z,348.00
2018-08-27T04:57:00.371Z,352.00
2018-08-27T04:58:00.342Z,388.00
2018-08-27T04:59:00.317Z,408.00
2018-08-27T05:00:00.292Z,412.00
2018-08-27T05:01:00.269Z,464.00
2018-08-27T05:02:00.248Z,472.00
2018-08-27T05:03:00.223Z,476.00
2018-08-27T05:04:00.199Z,472.00
2018-08-27T05:05:00.175Z,512.00
2018-08-27T05:06:00.149Z,564.00
2018-08-27T05:07:00.125Z,632.00
2018-08-27T05:08:00.101Z,628.00
2018-08-27T05:09:00.076Z,664.00
2018-08-27T05:10:00.053Z,608.00
2018-08-27T05:11:00.029Z,600.00
2018-08-27T05:12:00.008Z,580.00
2018-08-27T05:12:59.980Z,540.00
2018-08-27T05:13:59.955Z,524.00
2018-08-27T05:14:59.932Z,444.00
2018-08-27T05:16:27.215Z,548.00
2018-08-27T05:16:59.882Z,540.00
